createdAt,value
2023-05-04T00:00:00.313Z,71.43
2023-05-04T00:02:28.149Z,74.67
2023-05-04T00:04:55.872Z,74.31
2023-05-04T00:07:23.271Z,73.69
2023-05-04T00:09:50.823Z,75.12
2023-05-04T00:12:18.478Z,73.17
2023-05-04T00:14:45.806Z,71.97
2023-05-04T00:17:13.192Z,70.78
2023-05-04T00:19:42.321Z,72.91
2023-05-04T00:22:09.817Z,72.81
2023-05-04T00:24:37.192Z,73.14
2023-05-04T00:27:04.817Z,75.10
2023-05-04T00:29:32.382Z,73.59
2023-05-04T00:31:59.781Z,73.52
2023-05-04T00:34:27.475Z,72.32
2023-05-04T00:36:55.953Z,71.97
2023-05-04T00:39:23.327Z,71.32
2023-05-04T00:41:50.973Z,70.40
2023-05-04T00:44:18.355Z,68.70
2023-05-04T00:46:46.025Z,71.03
2023-05-04T00:49:13.706Z,70.59
2023-05-04T00:51:41.209Z,70.72
2023-05-04T00:54:08.554Z,73.36
2023-05-04T00:56:42.149Z,71.96
2023-05-04T00:59:09.749Z,70.55
2023-05-04T01:01:37.498Z,70.45
2023-05-04T01:04:05.296Z,71.69
2023-05-04T01:06:44.099Z,71.17
2023-05-04T01:09:17.195Z,71.25
2023-05-04T01:11:48.944Z,70.38
2023-05-04T01:14:17.072Z,69.81
2023-05-04T01:16:44.472Z,68.19
2023-05-04T01:19:11.862Z,68.24
2023-05-04T01:21:39.615Z,68.85
2023-05-04T01:24:06.979Z,68.06
2023-05-04T01:26:39.639Z,68.16
2023-05-04T01:29:18.521Z,68.56
2023-05-04T01:31:46.451Z,67.81
2023-05-04T01:34:14.324Z,68.79
2023-05-04T01:36:41.772Z,69.37
2023-05-04T01:39:09.928Z,70.42
2023-05-04T01:41:37.594Z,68.97
2023-05-04T01:44:05.464Z,68.95
2023-05-04T01:46:32.840Z,69.23
2023-05-04T01:49:00.723Z,67.66
2023-05-04T01:51:28.062Z,68.20
2023-05-04T01:53:55.683Z,68.86
2023-05-04T01:56:23.359Z,67.58
2023-05-04T01:58:52.294Z,68.38
2023-05-04T02:01:19.706Z,67.86
2023-05-04T02:03:48.633Z,68.26
2023-05-04T02:06:16.207Z,67.72
2023-05-04T02:08:43.579Z,67.55
2023-05-04T02:11:11.258Z,67.83
2023-05-04T02:13:39.137Z,67.31
2023-05-04T02:16:06.837Z,68.64
2023-05-04T02:18:34.557Z,67.45
2023-05-04T02:21:01.938Z,68.42
2023-05-04T02:23:29.737Z,68.81
2023-05-04T02:25:59.114Z,69.04
2023-05-04T02:28:26.494Z,68.28
2023-05-04T02:30:53.879Z,67.94
2023-05-04T02:33:21.515Z,67.86
2023-05-04T02:35:48.887Z,67.63
2023-05-04T02:38:16.534Z,67.36
2023-05-04T02:40:43.939Z,67.48
2023-05-04T02:43:11.649Z,68.90
2023-05-04T02:45:39.309Z,70.79
2023-05-04T02:48:06.763Z,72.11
2023-05-04T02:50:34.147Z,70.39
2023-05-04T02:53:01.768Z,70.54
2023-05-04T02:55:29.305Z,69.54
2023-05-04T02:57:56.677Z,69.63
2023-05-04T03:00:24.564Z,70.62
2023-05-04T03:02:51.992Z,70.44
2023-05-04T03:05:19.413Z,70.32
2023-05-04T03:07:47.071Z,70.24
2023-05-04T03:10:14.456Z,69.69
2023-05-04T03:12:41.884Z,68.75
2023-05-04T03:15:09.641Z,69.13
2023-05-04T03:17:37.261Z,68.44
2023-05-04T03:20:05.845Z,67.46
2023-05-04T03:22:34.014Z,67.37
2023-05-04T03:25:01.646Z,66.59
2023-05-04T03:27:29.762Z,68.01
2023-05-04T03:29:57.580Z,66.67
2023-05-04T03:32:26.450Z,67.18
2023-05-04T03:34:53.946Z,67.70
2023-05-04T03:37:22.968Z,67.03
2023-05-04T03:39:50.376Z,67.12
2023-05-04T03:42:17.772Z,67.48
2023-05-04T03:44:46.573Z,67.96
2023-05-04T03:47:14.008Z,68.39
2023-05-04T03:49:41.367Z,68.63
2023-05-04T03:52:08.946Z,67.38
2023-05-04T03:54:37.738Z,71.60
2023-05-04T03:57:05.210Z,70.70
2023-05-04T03:59:33.281Z,70.74
2023-05-04T04:02:02.669Z,70.51
2023-05-04T04:04:30.403Z,71.54
2023-05-04T04:06:58.048Z,70.91
2023-05-04T04:09:25.806Z,70.07
2023-05-04T04:11:53.454Z,71.01
2023-05-04T04:14:20.824Z,70.16
2023-05-04T04:16:48.199Z,72.33
2023-05-04T04:19:15.843Z,69.74
2023-05-04T04:21:43.192Z,70.67
2023-05-04T04:24:11.138Z,69.87
2023-05-04T04:26:38.942Z,69.45
2023-05-04T04:29:06.350Z,69.80
2023-05-04T04:31:33.772Z,71.45
2023-05-04T04:34:01.398Z,70.33
2023-05-04T04:36:28.807Z,70.47
2023-05-04T04:38:56.384Z,69.29
2023-05-04T04:41:25.042Z,69.65
2023-05-04T04:43:52.475Z,69.38
2023-05-04T04:46:19.902Z,69.06
2023-05-04T04:48:47.897Z,66.41
2023-05-04T04:51:15.292Z,66.43
2023-05-04T04:53:42.624Z,66.92
2023-05-04T04:56:10.547Z,65.12
2023-05-04T04:58:37.961Z,65.98
2023-05-04T05:01:05.539Z,64.94
2023-05-04T05:03:33.835Z,65.20
2023-05-04T05:06:04.074Z,64.18
2023-05-04T05:08:32.801Z,63.70
2023-05-04T05:11:00.395Z,62.58
2023-05-04T05:13:27.748Z,64.30
2023-05-04T05:15:55.106Z,63.21
2023-05-04T05:18:23.249Z,62.24
2023-05-04T05:20:50.737Z,61.15
2023-05-04T05:23:18.090Z,61.79
2023-05-04T05:25:45.772Z,61.46
2023-05-04T05:28:16.408Z,60.01
2023-05-04T05:30:44.169Z,59.55
2023-05-04T05:33:12.023Z,59.36
2023-05-04T05:35:39.782Z,58.15
2023-05-04T05:38:07.159Z,57.24
2023-05-04T05:40:34.814Z,57.40
2023-05-04T05:43:02.656Z,55.02
2023-05-04T05:45:30.210Z,53.15
2023-05-04T05:47:57.852Z,52.34
2023-05-04T05:50:25.234Z,51.68
2023-05-04T05:52:52.654Z,50.33
2023-05-04T05:55:20.291Z,50.42
2023-05-04T05:57:47.797Z,49.35
2023-05-04T06:00:15.855Z,48.56
2023-05-04T06:02:43.714Z,48.81
2023-05-04T06:05:11.685Z,46.32
2023-05-04T06:07:39.548Z,46.41
2023-05-04T06:10:07.588Z,45.06
2023-05-04T06:12:35.522Z,44.96
2023-05-04T06:15:02.955Z,43.00
2023-05-04T06:17:31.144Z,44.09
2023-05-04T06:19:58.529Z,43.59
2023-05-04T06:22:25.875Z,41.91
2023-05-04T06:24:56.790Z,41.06
2023-05-04T06:27:28.949Z,41.16
2023-05-04T06:29:56.622Z,39.32
2023-05-04T06:32:24.012Z,38.16
2023-05-04T06:34:57.447Z,34.78
2023-05-04T06:37:26.449Z,36.09
2023-05-04T06:39:54.679Z,38.27
2023-05-04T06:42:22.067Z,36.47
2023-05-04T06:44:51.350Z,38.93
2023-05-04T06:47:18.717Z,38.45
2023-05-04T06:49:46.043Z,38.47
2023-05-04T06:52:14.418Z,38.13
2023-05-04T06:54:41.895Z,43.13
2023-05-04T06:57:09.268Z,42.59
2023-05-04T06:59:37.032Z,41.48
2023-05-04T07:02:04.666Z,39.28
2023-05-04T07:04:32.080Z,37.61
2023-05-04T07:06:59.705Z,35.66
2023-05-04T07:09:27.305Z,34.88
2023-05-04T07:11:54.667Z,33.41
2023-05-04T07:14:22.328Z,32.76
2023-05-04T07:16:49.728Z,30.31
2023-05-04T07:19:17.552Z,30.56
2023-05-04T07:21:45.217Z,28.84
2023-05-04T07:24:12.574Z,30.54
2023-05-04T07:26:39.934Z,29.18
2023-05-04T07:29:07.600Z,26.51
2023-05-04T07:31:35.270Z,25.69
2023-05-04T07:34:02.675Z,24.03
2023-05-04T07:36:30.698Z,23.60
2023-05-04T07:38:58.102Z,21.94
2023-05-04T07:41:26.403Z,20.93
2023-05-04T07:43:54.032Z,21.18
2023-05-04T07:46:21.437Z,20.45
2023-05-04T07:48:49.414Z,22.80
2023-05-04T07:51:17.073Z,22.53
2023-05-04T07:53:44.418Z,21.10
2023-05-04T07:56:12.670Z,20.96
2023-05-04T07:58:41.423Z,21.69
2023-05-04T08:01:08.836Z,21.43
2023-05-04T08:03:36.556Z,19.52
2023-05-04T08:06:03.935Z,18.25
2023-05-04T08:08:31.333Z,18.86
2023-05-04T08:11:11.566Z,20.47
2023-05-04T08:13:40.276Z,19.73
2023-05-04T08:16:09.428Z,18.17
2023-05-04T08:18:37.179Z,16.51
2023-05-04T08:21:05.054Z,16.95
2023-05-04T08:23:33.522Z,17.24
2023-05-04T08:26:04.337Z,18.73
2023-05-04T08:28:40.476Z,17.23
2023-05-04T08:31:08.269Z,16.77
2023-05-04T08:33:35.628Z,16.85
2023-05-04T08:36:04.462Z,17.93
2023-05-04T08:38:32.205Z,16.43
2023-05-04T08:41:05.437Z,19.28
2023-05-04T08:43:36.779Z,16.89
2023-05-04T08:46:04.856Z,17.10
2023-05-04T08:48:35.484Z,17.87
2023-05-04T08:51:04.348Z,18.89
2023-05-04T08:53:31.951Z,18.89
2023-05-04T08:56:04.682Z,20.13
2023-05-04T08:58:32.139Z,21.97
2023-05-04T09:00:59.875Z,20.95
2023-05-04T09:03:28.007Z,21.85
2023-05-04T09:05:55.519Z,20.78
2023-05-04T09:08:23.148Z,22.34
2023-05-04T09:10:50.493Z,22.97
2023-05-04T09:13:18.026Z,22.54
2023-05-04T09:15:55.781Z,22.13
2023-05-04T09:18:23.491Z,19.76
2023-05-04T09:20:51.256Z,20.99
2023-05-04T09:23:18.757Z,20.92
2023-05-04T09:25:49.812Z,23.42
2023-05-04T09:28:18.211Z,26.19
2023-05-04T09:30:46.918Z,26.11
2023-05-04T09:33:17.624Z,28.75
2023-05-04T09:35:45.494Z,29.72
2023-05-04T09:38:24.112Z,29.60
2023-05-04T09:40:52.179Z,32.82
2023-05-04T09:43:19.536Z,32.67
2023-05-04T09:45:47.359Z,33.45
2023-05-04T09:48:29.377Z,32.97
2023-05-04T09:51:00.972Z,32.64
2023-05-04T09:53:29.638Z,34.24
2023-05-04T09:56:11.238Z,34.19
2023-05-04T09:58:39.023Z,32.59
2023-05-04T10:01:06.450Z,32.58
2023-05-04T10:03:34.095Z,31.57
2023-05-04T10:06:04.319Z,32.18
2023-05-04T10:08:32.685Z,35.21
2023-05-04T10:11:00.430Z,36.23
2023-05-04T10:13:28.136Z,38.92
2023-05-04T10:16:01.442Z,37.75
2023-05-04T10:19:03.898Z,40.29
2023-05-04T10:21:56.173Z,38.82
2023-05-04T10:24:39.380Z,37.83
2023-05-04T10:27:19.376Z,38.67
2023-05-04T10:29:50.834Z,38.04
2023-05-04T10:32:20.067Z,37.53
2023-05-04T10:34:47.988Z,37.05
2023-05-04T10:37:19.453Z,35.75
2023-05-04T10:39:53.689Z,36.81
2023-05-04T10:42:21.474Z,36.11
2023-05-04T10:44:55.563Z,35.12
2023-05-04T10:47:33.402Z,35.42
2023-05-04T10:50:04.674Z,35.94
2023-05-04T10:52:33.020Z,35.29
2023-05-04T10:55:05.513Z,35.52
2023-05-04T10:57:33.340Z,36.14
2023-05-04T11:00:01.657Z,35.35
2023-05-04T11:02:31.662Z,34.29
2023-05-04T11:05:02.059Z,34.22
2023-05-04T11:07:37.539Z,35.21
2023-05-04T11:10:06.078Z,34.58
2023-05-04T11:12:33.557Z,33.55
2023-05-04T11:15:10.183Z,33.15
2023-05-04T11:17:53.290Z,32.87
2023-05-04T11:20:24.697Z,33.06
2023-05-04T11:22:53.110Z,33.30
2023-05-04T11:25:29.664Z,32.29
2023-05-04T11:27:58.412Z,33.12
2023-05-04T11:30:53.286Z,33.23
2023-05-04T11:33:22.707Z,33.88
2023-05-04T11:35:50.206Z,36.45
2023-05-04T11:38:19.963Z,38.85
2023-05-04T11:40:47.828Z,38.21
2023-05-04T11:43:15.200Z,38.60
2023-05-04T11:45:42.669Z,39.22
2023-05-04T11:48:10.375Z,41.39
2023-05-04T11:50:37.790Z,41.18
2023-05-04T11:53:09.633Z,42.13
2023-05-04T11:55:38.056Z,42.71
2023-05-04T11:58:09.787Z,44.08
2023-05-04T12:00:41.651Z,43.68
2023-05-04T12:03:16.615Z,43.36
2023-05-04T12:05:48.437Z,45.24
2023-05-04T12:08:26.352Z,44.52
2023-05-04T12:11:09.093Z,44.80
2023-05-04T12:13:36.851Z,44.76
2023-05-04T12:16:11.042Z,45.47
2023-05-04T12:18:38.767Z,45.42
2023-05-04T12:21:10.442Z,44.71
2023-05-04T12:23:38.697Z,46.24
2023-05-04T12:26:06.776Z,44.86
2023-05-04T12:28:37.676Z,44.41
2023-05-04T12:31:05.225Z,44.43
2023-05-04T12:33:33.289Z,43.89
2023-05-04T12:36:01.319Z,44.69
2023-05-04T12:38:29.055Z,45.25
2023-05-04T12:40:59.040Z,47.01
2023-05-04T12:43:26.955Z,45.07
2023-05-04T12:45:54.586Z,44.67
2023-05-04T12:48:22.424Z,44.57
2023-05-04T12:50:50.874Z,43.53
2023-05-04T12:53:18.539Z,43.56
2023-05-04T12:55:46.698Z,43.01
2023-05-04T12:58:14.099Z,44.13
2023-05-04T13:00:41.542Z,42.59
2023-05-04T13:03:09.731Z,42.77
2023-05-04T13:05:37.250Z,42.25
2023-05-04T13:08:04.816Z,43.25
2023-05-04T13:10:32.949Z,41.72
2023-05-04T13:13:00.453Z,43.01
2023-05-04T13:15:28.094Z,41.40
2023-05-04T13:17:55.731Z,40.94
2023-05-04T13:20:23.148Z,39.77
2023-05-04T13:22:51.667Z,40.33
2023-05-04T13:25:19.366Z,40.65
2023-05-04T13:27:46.757Z,40.52
2023-05-04T13:30:14.221Z,40.11
2023-05-04T13:32:42.081Z,43.28
2023-05-04T13:35:09.771Z,44.51
2023-05-04T13:37:38.199Z,44.11
2023-05-04T13:40:06.218Z,46.61
2023-05-04T13:42:36.369Z,45.88
2023-05-04T13:45:05.565Z,47.48
2023-05-04T13:47:34.148Z,45.99
2023-05-04T13:50:02.095Z,47.13
2023-05-04T13:52:31.954Z,47.51
2023-05-04T13:55:00.257Z,48.84
2023-05-04T13:57:28.039Z,48.75
2023-05-04T14:00:06.328Z,47.74
2023-05-04T14:02:37.956Z,47.96
2023-05-04T14:05:06.888Z,46.00
2023-05-04T14:07:34.630Z,48.39
2023-05-04T14:10:02.473Z,47.60
2023-05-04T14:12:30.257Z,46.55
2023-05-04T14:14:58.965Z,45.38
2023-05-04T14:17:26.474Z,44.69
2023-05-04T14:19:54.093Z,44.43
2023-05-04T14:22:21.430Z,45.19
2023-05-04T14:24:49.435Z,45.71
2023-05-04T14:27:17.575Z,44.35
2023-05-04T14:29:47.622Z,45.33
2023-05-04T14:32:15.537Z,44.75
2023-05-04T14:34:43.208Z,45.73
2023-05-04T14:37:10.570Z,45.01
2023-05-04T14:39:39.415Z,45.34
2023-05-04T14:42:07.058Z,45.58
2023-05-04T14:44:34.465Z,45.56
2023-05-04T14:47:04.836Z,45.57
2023-05-04T14:49:37.165Z,46.55
2023-05-04T14:52:05.131Z,46.33
2023-05-04T14:54:32.629Z,45.78
2023-05-04T14:57:00.316Z,45.28
2023-05-04T14:59:27.790Z,45.49
2023-05-04T15:01:55.741Z,46.49
2023-05-04T15:04:23.521Z,46.39
2023-05-04T15:06:52.340Z,45.85
2023-05-04T15:09:19.744Z,45.68
2023-05-04T15:11:48.559Z,46.15
2023-05-04T15:14:16.293Z,45.43
2023-05-04T15:16:43.703Z,45.47
2023-05-04T15:19:11.313Z,46.29
2023-05-04T15:21:38.724Z,46.64
2023-05-04T15:24:06.154Z,46.68
2023-05-04T15:26:34.632Z,45.98
2023-05-04T15:29:02.111Z,46.70
2023-05-04T15:31:29.594Z,48.46
2023-05-04T15:33:57.239Z,47.67
2023-05-04T15:36:24.762Z,47.51
2023-05-04T15:38:52.152Z,46.87
2023-05-04T15:41:19.804Z,48.70
2023-05-04T15:43:47.192Z,47.57
2023-05-04T15:46:14.590Z,47.16
2023-05-04T15:48:42.553Z,47.96
2023-05-04T15:51:11.213Z,48.11
2023-05-04T15:53:38.797Z,47.81
2023-05-04T15:56:06.525Z,47.78
2023-05-04T15:58:33.931Z,47.31
2023-05-04T16:01:04.064Z,47.83
2023-05-04T16:03:32.247Z,47.59
2023-05-04T16:05:59.801Z,47.77
2023-05-04T16:08:27.477Z,47.27
2023-05-04T16:10:55.925Z,47.74
2023-05-04T16:13:23.321Z,48.78
2023-05-04T16:15:51.330Z,49.52
2023-05-04T16:18:19.026Z,48.25
2023-05-04T16:20:47.229Z,48.68
2023-05-04T16:23:15.763Z,48.45
2023-05-04T16:25:43.515Z,49.03
2023-05-04T16:28:11.171Z,50.26
2023-05-04T16:30:38.654Z,50.89
2023-05-04T16:33:06.345Z,49.60
2023-05-04T16:35:34.485Z,48.94
2023-05-04T16:38:01.985Z,49.24
2023-05-04T16:40:30.767Z,49.18
2023-05-04T16:42:58.607Z,49.06
2023-05-04T16:45:31.197Z,49.17
2023-05-04T16:47:58.973Z,47.82
2023-05-04T16:50:26.433Z,48.37
2023-05-04T16:52:53.861Z,48.66
2023-05-04T16:55:21.732Z,48.92
2023-05-04T16:57:49.521Z,49.03
2023-05-04T17:00:17.082Z,49.55
2023-05-04T17:02:45.482Z,48.64
2023-05-04T17:05:12.989Z,48.33
2023-05-04T17:07:43.024Z,47.59
2023-05-04T17:10:10.974Z,48.75
2023-05-04T17:12:38.587Z,47.77
2023-05-04T17:15:06.622Z,48.51
2023-05-04T17:17:34.254Z,48.25
2023-05-04T17:20:02.446Z,48.13
2023-05-04T17:22:29.880Z,50.37
2023-05-04T17:24:57.554Z,49.36
2023-05-04T17:27:24.927Z,48.92
2023-05-04T17:29:52.270Z,48.87
2023-05-04T17:32:20.037Z,49.21
2023-05-04T17:34:47.432Z,48.52
2023-05-04T17:37:14.810Z,49.09
2023-05-04T17:39:42.480Z,48.50
2023-05-04T17:42:10.774Z,48.96
2023-05-04T17:44:38.134Z,49.12
2023-05-04T17:47:06.284Z,49.53
2023-05-04T17:49:33.623Z,49.21
2023-05-04T17:52:01.433Z,49.99
2023-05-04T17:54:29.034Z,49.85
2023-05-04T17:56:56.401Z,50.59
2023-05-04T17:59:23.757Z,50.19
2023-05-04T18:01:51.401Z,50.11
2023-05-04T18:04:19.038Z,51.12
2023-05-04T18:06:47.022Z,51.56
2023-05-04T18:09:15.534Z,51.68
2023-05-04T18:11:43.177Z,51.47
2023-05-04T18:14:10.569Z,51.19
2023-05-04T18:16:39.300Z,50.82
2023-05-04T18:19:07.108Z,51.39
2023-05-04T18:21:37.434Z,51.48
2023-05-04T18:24:05.035Z,52.35
2023-05-04T18:26:32.677Z,52.02
2023-05-04T18:29:11.110Z,53.09
2023-05-04T18:31:45.380Z,53.07
2023-05-04T18:34:12.827Z,53.37
2023-05-04T18:36:40.518Z,53.28
2023-05-04T18:39:08.716Z,53.49
2023-05-04T18:41:36.108Z,53.33
2023-05-04T18:44:15.356Z,53.65
2023-05-04T18:46:42.790Z,53.21
2023-05-04T18:49:10.263Z,53.70
2023-05-04T18:51:41.565Z,53.43
2023-05-04T18:54:09.164Z,53.96
2023-05-04T18:56:36.548Z,54.48
2023-05-04T18:59:06.041Z,54.80
2023-05-04T19:01:33.467Z,54.67
2023-05-04T19:04:01.321Z,55.45
2023-05-04T19:06:28.782Z,54.69
2023-05-04T19:08:56.148Z,54.72
2023-05-04T19:11:23.847Z,54.42
2023-05-04T19:13:51.458Z,54.59
2023-05-04T19:16:18.946Z,54.83
2023-05-04T19:18:46.673Z,55.38
2023-05-04T19:21:14.058Z,54.80
2023-05-04T19:23:41.388Z,55.15
2023-05-04T19:26:09.315Z,54.28
2023-05-04T19:28:36.838Z,54.47
2023-05-04T19:31:04.246Z,54.81
2023-05-04T19:33:44.632Z,54.83
2023-05-04T19:36:16.314Z,54.38
2023-05-04T19:38:44.104Z,56.35
2023-05-04T19:41:11.482Z,57.49
2023-05-04T19:43:39.034Z,57.13
2023-05-04T19:46:06.790Z,56.34
2023-05-04T19:48:34.187Z,55.87
2023-05-04T19:51:02.169Z,56.61
2023-05-04T19:53:31.153Z,58.55
2023-05-04T19:55:58.560Z,57.97
2023-05-04T19:58:28.121Z,57.15
2023-05-04T20:00:56.089Z,57.17
2023-05-04T20:03:24.011Z,57.42
2023-05-04T20:05:51.830Z,57.31
2023-05-04T20:08:19.193Z,58.28
2023-05-04T20:10:46.901Z,58.13
2023-05-04T20:13:14.790Z,58.04
2023-05-04T20:15:42.741Z,57.98
2023-05-04T20:18:10.364Z,57.70
2023-05-04T20:20:37.929Z,57.97
2023-05-04T20:23:05.334Z,58.07
2023-05-04T20:25:32.998Z,57.66
2023-05-04T20:28:00.770Z,57.94
2023-05-04T20:30:28.907Z,58.27
2023-05-04T20:32:56.632Z,58.47
2023-05-04T20:35:24.059Z,58.74
2023-05-04T20:37:51.404Z,59.41
2023-05-04T20:40:19.730Z,59.54
2023-05-04T20:42:47.231Z,59.10
2023-05-04T20:45:14.587Z,59.19
2023-05-04T20:47:42.706Z,58.48
2023-05-04T20:50:11.876Z,59.50
2023-05-04T20:52:39.298Z,58.67
2023-05-04T20:55:07.958Z,58.93
2023-05-04T20:57:35.416Z,58.90
2023-05-04T21:00:03.272Z,58.62
2023-05-04T21:02:31.591Z,59.30
2023-05-04T21:04:58.997Z,59.19
2023-05-04T21:07:26.343Z,60.13
2023-05-04T21:09:58.138Z,58.97
2023-05-04T21:12:25.956Z,58.93
2023-05-04T21:14:53.579Z,58.12
2023-05-04T21:17:20.986Z,57.26
2023-05-04T21:19:48.369Z,57.98
2023-05-04T21:22:17.667Z,57.04
2023-05-04T21:24:46.532Z,58.60
2023-05-04T21:27:14.075Z,61.39
2023-05-04T21:29:41.706Z,61.05
2023-05-04T21:32:09.219Z,60.76
2023-05-04T21:34:36.599Z,60.12
2023-05-04T21:37:04.243Z,59.96
2023-05-04T21:39:31.828Z,60.52
2023-05-04T21:41:59.206Z,59.90
2023-05-04T21:44:26.811Z,59.71
2023-05-04T21:46:55.796Z,59.12
2023-05-04T21:49:23.215Z,59.18
2023-05-04T21:51:50.966Z,60.97
2023-05-04T21:54:18.318Z,59.43
2023-05-04T21:56:45.709Z,58.29
2023-05-04T21:59:13.328Z,58.91
2023-05-04T22:01:42.370Z,58.41
2023-05-04T22:04:10.060Z,58.53
2023-05-04T22:06:37.632Z,59.63
2023-05-04T22:09:05.149Z,58.89
2023-05-04T22:11:32.802Z,58.36
2023-05-04T22:14:00.259Z,58.05
2023-05-04T22:16:27.856Z,60.39
2023-05-04T22:18:55.493Z,58.40
2023-05-04T22:21:22.814Z,58.12
2023-05-04T22:23:50.298Z,57.75
2023-05-04T22:26:17.912Z,58.39
2023-05-04T22:28:45.330Z,58.14
2023-05-04T22:31:12.718Z,57.01
2023-05-04T22:33:40.356Z,57.99
2023-05-04T22:36:07.853Z,55.00
2023-05-04T22:38:35.192Z,56.61
2023-05-04T22:41:03.201Z,55.48
2023-05-04T22:43:30.660Z,55.86
2023-05-04T22:45:58.011Z,56.35
2023-05-04T22:48:25.709Z,55.12
2023-05-04T22:50:53.171Z,55.59
2023-05-04T22:53:20.679Z,55.61
2023-05-04T22:55:48.287Z,54.59
2023-05-04T22:58:15.835Z,55.12
2023-05-04T23:00:43.213Z,53.30
2023-05-04T23:03:10.922Z,50.56
2023-05-04T23:05:38.329Z,51.25
2023-05-04T23:08:05.793Z,50.41
2023-05-04T23:10:33.434Z,51.49
2023-05-04T23:13:01.113Z,52.93
2023-05-04T23:15:28.484Z,51.95
2023-05-04T23:17:56.115Z,51.50
2023-05-04T23:20:23.428Z,49.93
2023-05-04T23:22:51.036Z,52.03
2023-05-04T23:25:18.638Z,52.85
2023-05-04T23:27:45.969Z,51.52
2023-05-04T23:30:13.363Z,52.19
2023-05-04T23:32:40.987Z,52.73
2023-05-04T23:35:08.702Z,52.13
2023-05-04T23:37:36.201Z,51.18
2023-05-04T23:40:04.013Z,51.79
2023-05-04T23:42:31.404Z,52.87
2023-05-04T23:44:58.764Z,51.57
2023-05-04T23:47:26.353Z,51.28
2023-05-04T23:49:53.715Z,52.09
2023-05-04T23:52:21.082Z,52.01
2023-05-04T23:54:52.823Z,52.37
2023-05-04T23:57:20.179Z,52.95
2023-05-04T23:59:47.653Z,50.20
